createdAt,value
2023-04-20T00:01:32.777Z,6.60
2023-04-20T00:04:01.156Z,6.60
2023-04-20T00:06:29.913Z,6.60
2023-04-20T00:08:57.894Z,6.40
2023-04-20T00:11:26.860Z,6.30
2023-04-20T00:13:56.114Z,6.40
2023-04-20T00:16:24.529Z,6.30
2023-04-20T00:18:52.626Z,6.20
2023-04-20T00:21:24.512Z,6.20
2023-04-20T00:23:52.989Z,6.30
2023-04-20T00:26:21.193Z,6.50
2023-04-20T00:28:49.234Z,6.60
2023-04-20T00:31:18.838Z,6.60
2023-04-20T00:33:46.829Z,6.50
2023-04-20T00:36:14.896Z,6.50
2023-04-20T00:38:42.802Z,6.30
2023-04-20T00:41:10.762Z,6.20
2023-04-20T00:43:38.859Z,6.10
2023-04-20T00:46:07.059Z,5.90
2023-04-20T00:48:36.348Z,6.00
2023-04-20T00:51:04.723Z,5.90
2023-04-20T00:53:32.854Z,6.10
2023-04-20T00:56:01.105Z,5.90
2023-04-20T00:58:29.492Z,5.90
2023-04-20T01:00:57.573Z,5.90
2023-04-20T01:03:25.816Z,5.90
2023-04-20T01:05:55.288Z,5.80
2023-04-20T01:08:27.381Z,5.90
2023-04-20T01:10:56.165Z,5.90
2023-04-20T01:13:24.428Z,5.80
2023-04-20T01:15:52.500Z,5.80
2023-04-20T01:18:20.692Z,5.70
2023-04-20T01:20:48.748Z,5.70
2023-04-20T01:23:18.621Z,5.80
2023-04-20T01:25:46.811Z,5.80
2023-04-20T01:28:14.677Z,5.90
2023-04-20T01:30:42.767Z,5.90
2023-04-20T01:33:10.690Z,5.90
2023-04-20T01:35:38.874Z,5.90
2023-04-20T01:38:06.783Z,5.90
2023-04-20T01:40:36.359Z,5.90
2023-04-20T01:43:04.427Z,5.90
2023-04-20T01:45:32.305Z,5.70
2023-04-20T01:48:01.616Z,5.60
2023-04-20T01:50:29.694Z,5.80
2023-04-20T01:52:57.968Z,5.80
2023-04-20T01:55:25.863Z,5.90
2023-04-20T01:57:55.114Z,5.90
2023-04-20T02:00:23.223Z,6.00
2023-04-20T02:02:51.538Z,6.00
2023-04-20T02:05:19.717Z,6.00
2023-04-20T02:07:47.754Z,5.90
2023-04-20T02:10:15.715Z,5.70
2023-04-20T02:12:43.798Z,5.70
2023-04-20T02:15:13.321Z,5.70
2023-04-20T02:17:41.918Z,5.80
2023-04-20T02:20:10.745Z,5.80
2023-04-20T02:22:39.622Z,5.60
2023-04-20T02:25:10.707Z,5.60
2023-04-20T02:27:38.625Z,5.50
2023-04-20T02:30:08.446Z,5.30
2023-04-20T02:32:37.788Z,5.30
2023-04-20T02:35:06.640Z,5.30
2023-04-20T02:37:34.799Z,5.30
2023-04-20T02:40:02.748Z,5.30
2023-04-20T02:42:31.007Z,5.10
2023-04-20T02:44:59.226Z,5.10
2023-04-20T02:47:27.134Z,5.20
2023-04-20T02:49:56.852Z,5.20
2023-04-20T02:52:24.935Z,5.30
2023-04-20T02:54:52.974Z,5.30
2023-04-20T02:57:20.813Z,5.30
2023-04-20T02:59:48.724Z,5.40
2023-04-20T03:02:16.884Z,5.40
2023-04-20T03:04:45.116Z,5.10
2023-04-20T03:07:16.522Z,5.40
2023-04-20T03:09:44.879Z,5.40
2023-04-20T03:12:12.787Z,5.30
2023-04-20T03:14:40.858Z,5.20
2023-04-20T03:17:08.885Z,5.30
2023-04-20T03:19:37.009Z,5.20
2023-04-20T03:22:04.952Z,5.20
2023-04-20T03:24:35.514Z,5.20
2023-04-20T03:27:03.763Z,5.20
2023-04-20T03:29:31.692Z,5.10
2023-04-20T03:31:59.616Z,5.10
2023-04-20T03:34:28.044Z,5.10
2023-04-20T03:36:55.929Z,5.30
2023-04-20T03:39:23.977Z,5.30
2023-04-20T03:41:53.289Z,5.20
2023-04-20T03:44:21.345Z,5.30
2023-04-20T03:46:49.267Z,5.30
2023-04-20T03:49:17.592Z,5.10
2023-04-20T03:51:45.691Z,5.00
2023-04-20T03:54:13.573Z,5.10
2023-04-20T03:56:41.719Z,5.00
2023-04-20T03:59:10.967Z,5.10
2023-04-20T04:01:39.240Z,5.20
2023-04-20T04:04:07.324Z,5.20
2023-04-20T04:06:35.932Z,5.10
2023-04-20T04:09:03.823Z,5.00
2023-04-20T04:11:31.924Z,5.10
2023-04-20T04:14:00.065Z,5.10
2023-04-20T04:16:29.574Z,5.00
2023-04-20T04:18:57.525Z,5.00
2023-04-20T04:21:25.933Z,5.10
2023-04-20T04:23:53.833Z,5.10
2023-04-20T04:26:24.516Z,5.10
2023-04-20T04:28:52.818Z,5.00
2023-04-20T04:31:21.871Z,5.20
2023-04-20T04:33:51.298Z,5.20
2023-04-20T04:36:19.545Z,5.20
2023-04-20T04:38:48.148Z,5.10
2023-04-20T04:41:16.869Z,4.90
2023-04-20T04:43:45.948Z,5.00
2023-04-20T04:46:14.730Z,4.90
2023-04-20T04:48:43.241Z,5.00
2023-04-20T04:51:13.059Z,4.90
2023-04-20T04:53:44.974Z,4.90
2023-04-20T04:56:13.376Z,4.90
2023-04-20T04:58:41.325Z,4.90
2023-04-20T05:01:09.358Z,5.00
2023-04-20T05:03:37.488Z,5.00
2023-04-20T05:06:05.817Z,5.00
2023-04-20T05:08:35.326Z,5.10
2023-04-20T05:11:03.371Z,5.00
2023-04-20T05:13:31.285Z,4.90
2023-04-20T05:15:59.520Z,4.90
2023-04-20T05:18:27.474Z,5.00
2023-04-20T05:20:55.684Z,5.00
2023-04-20T05:23:23.743Z,5.10
2023-04-20T05:25:53.062Z,5.10
2023-04-20T05:28:21.528Z,4.90
2023-04-20T05:30:49.445Z,4.90
2023-04-20T05:33:17.819Z,5.00
2023-04-20T05:35:45.812Z,5.10
2023-04-20T05:38:14.080Z,5.10
2023-04-20T05:40:41.977Z,5.20
2023-04-20T05:43:11.693Z,5.10
2023-04-20T05:45:39.815Z,5.20
2023-04-20T05:48:07.848Z,5.20
2023-04-20T05:50:36.227Z,5.10
2023-04-20T05:53:04.176Z,5.10
2023-04-20T05:55:32.318Z,5.00
2023-04-20T05:58:00.596Z,5.00
2023-04-20T06:00:29.865Z,4.90
2023-04-20T06:02:58.105Z,4.90
2023-04-20T06:05:26.252Z,5.00
2023-04-20T06:07:54.346Z,4.90
2023-04-20T06:10:22.696Z,5.00
2023-04-20T06:12:50.625Z,4.90
2023-04-20T06:15:18.928Z,5.00
2023-04-20T06:17:48.537Z,5.00
2023-04-20T06:20:16.934Z,5.10
2023-04-20T06:22:45.634Z,5.10
2023-04-20T06:25:14.791Z,5.00
2023-04-20T06:27:42.877Z,5.00
2023-04-20T06:30:11.977Z,5.10
2023-04-20T06:32:39.939Z,5.10
2023-04-20T06:35:10.443Z,5.20
2023-04-20T06:37:38.681Z,5.10
2023-04-20T06:40:09.396Z,5.10
2023-04-20T06:42:37.870Z,5.10
2023-04-20T06:45:06.911Z,5.00
2023-04-20T06:47:35.300Z,4.80
2023-04-20T06:50:05.056Z,4.80
2023-04-20T06:52:34.321Z,4.90
2023-04-20T06:55:02.391Z,5.00
2023-04-20T06:57:30.424Z,5.10
2023-04-20T06:59:58.972Z,5.00
2023-04-20T07:02:27.468Z,5.10
2023-04-20T07:05:01.934Z,5.30
2023-04-20T07:07:30.124Z,5.30
2023-04-20T07:09:59.399Z,5.30
2023-04-20T07:12:27.325Z,5.40
2023-04-20T07:14:55.927Z,5.60
2023-04-20T07:17:23.905Z,5.70
2023-04-20T07:19:52.606Z,5.80
2023-04-20T07:22:20.785Z,5.60
2023-04-20T07:24:48.695Z,5.70
2023-04-20T07:27:18.359Z,5.70
2023-04-20T07:29:46.597Z,5.60
2023-04-20T07:32:14.741Z,5.50
2023-04-20T07:34:42.964Z,5.70
2023-04-20T07:37:11.232Z,5.70
2023-04-20T07:39:39.304Z,5.60
2023-04-20T07:42:07.415Z,5.60
2023-04-20T07:44:36.712Z,5.60
2023-04-20T07:47:05.033Z,5.50
2023-04-20T07:49:33.172Z,5.50
2023-04-20T07:52:13.194Z,5.40
2023-04-20T07:54:44.338Z,5.30
2023-04-20T07:57:12.266Z,5.30
2023-04-20T07:59:41.981Z,5.30
2023-04-20T08:02:09.975Z,5.30
2023-04-20T08:04:39.162Z,5.30
2023-04-20T08:07:07.275Z,5.20
2023-04-20T08:09:35.186Z,5.20
2023-04-20T08:12:03.266Z,5.40
2023-04-20T08:14:31.314Z,5.40
2023-04-20T08:17:00.814Z,5.30
2023-04-20T08:19:28.910Z,5.30
2023-04-20T08:21:57.130Z,5.40
2023-04-20T08:24:25.108Z,5.40
2023-04-20T08:26:53.266Z,5.40
2023-04-20T08:29:21.471Z,5.60
2023-04-20T08:31:51.637Z,5.60
2023-04-20T08:34:21.524Z,5.90
2023-04-20T08:36:49.531Z,5.80
2023-04-20T08:39:21.743Z,5.90
2023-04-20T08:41:54.003Z,5.80
2023-04-20T08:44:22.039Z,5.80
2023-04-20T08:46:51.270Z,5.90
2023-04-20T08:49:21.922Z,5.90
2023-04-20T08:51:50.481Z,5.90
2023-04-20T08:54:18.657Z,5.90
2023-04-20T08:56:48.499Z,5.90
2023-04-20T08:59:17.275Z,6.00
2023-04-20T09:01:46.534Z,6.10
2023-04-20T09:04:19.545Z,6.10
2023-04-20T09:06:52.460Z,6.30
2023-04-20T09:09:21.585Z,6.30
2023-04-20T09:12:00.674Z,6.40
2023-04-20T09:14:28.595Z,6.30
2023-04-20T09:17:02.056Z,6.40
2023-04-20T09:19:31.160Z,6.30
2023-04-20T09:22:03.960Z,6.30
2023-04-20T09:24:33.605Z,6.30
2023-04-20T09:27:02.412Z,6.30
2023-04-20T09:29:31.213Z,6.40
2023-04-20T09:31:59.176Z,6.50
2023-04-20T09:34:27.489Z,6.70
2023-04-20T09:36:56.047Z,6.60
2023-04-20T09:39:27.151Z,6.60
2023-04-20T09:41:59.523Z,6.60
2023-04-20T09:44:27.672Z,6.80
2023-04-20T09:46:55.790Z,6.90
2023-04-20T09:49:23.863Z,6.70
2023-04-20T09:51:52.160Z,6.70
2023-04-20T09:54:20.835Z,6.60
2023-04-20T09:56:50.861Z,6.60
2023-04-20T09:59:20.903Z,6.20
2023-04-20T10:01:49.466Z,6.10
2023-04-20T10:04:17.966Z,6.30
2023-04-20T10:06:55.514Z,6.20
2023-04-20T10:09:26.102Z,6.30
2023-04-20T10:12:07.046Z,6.30
2023-04-20T10:14:35.706Z,6.50
2023-04-20T10:17:05.276Z,6.30
2023-04-20T10:19:40.842Z,6.30
2023-04-20T10:22:10.451Z,6.40
2023-04-20T10:24:39.136Z,6.40
2023-04-20T10:27:19.612Z,6.50
2023-04-20T10:29:47.827Z,6.60
2023-04-20T10:32:26.158Z,6.80
2023-04-20T10:35:06.294Z,6.90
2023-04-20T10:37:35.348Z,6.90
2023-04-20T10:40:07.415Z,6.70
2023-04-20T10:42:44.918Z,6.80
2023-04-20T10:45:13.409Z,6.90
2023-04-20T10:47:41.886Z,7.00
2023-04-20T10:50:11.507Z,7.10
2023-04-20T10:52:41.655Z,7.10
2023-04-20T10:55:20.554Z,6.90
2023-04-20T10:57:49.981Z,7.00
2023-04-20T11:00:20.538Z,6.90
2023-04-20T11:02:53.188Z,7.00
2023-04-20T11:05:22.461Z,6.80
2023-04-20T11:07:54.621Z,6.90
2023-04-20T11:10:24.081Z,6.80
2023-04-20T11:12:53.379Z,6.80
2023-04-20T11:15:32.836Z,6.90
2023-04-20T11:18:08.514Z,7.00
2023-04-20T11:20:37.155Z,7.00
2023-04-20T11:23:06.218Z,7.20
2023-04-20T11:25:34.334Z,7.20
2023-04-20T11:28:11.124Z,7.30
2023-04-20T11:30:41.360Z,7.30
2023-04-20T11:33:10.117Z,7.40
2023-04-20T11:35:38.873Z,7.50
2023-04-20T11:38:07.363Z,7.50
2023-04-20T11:40:35.764Z,7.50
2023-04-20T11:43:05.021Z,7.30
2023-04-20T11:45:36.208Z,7.50
2023-04-20T11:48:05.437Z,7.70
2023-04-20T11:50:33.567Z,7.70
2023-04-20T11:53:03.804Z,7.70
2023-04-20T11:55:31.743Z,7.90
2023-04-20T11:57:59.755Z,7.80
2023-04-20T12:00:27.844Z,7.90
2023-04-20T12:02:57.472Z,8.00
2023-04-20T12:05:26.062Z,8.10
2023-04-20T12:07:54.004Z,7.90
2023-04-20T12:10:22.034Z,8.00
2023-04-20T12:12:50.299Z,7.90
2023-04-20T12:15:18.382Z,8.00
2023-04-20T12:17:46.788Z,8.00
2023-04-20T12:20:16.193Z,7.80
2023-04-20T12:22:44.426Z,7.90
2023-04-20T12:25:14.317Z,7.90
2023-04-20T12:27:42.224Z,7.80
2023-04-20T12:30:11.215Z,7.80
2023-04-20T12:32:39.780Z,7.80
2023-04-20T12:35:09.660Z,8.00
2023-04-20T12:37:39.299Z,8.30
2023-04-20T12:40:08.633Z,8.20
2023-04-20T12:42:36.837Z,8.30
2023-04-20T12:45:05.144Z,8.20
2023-04-20T12:47:33.119Z,8.30
2023-04-20T12:50:01.339Z,8.30
2023-04-20T12:52:30.115Z,8.30
2023-04-20T12:54:59.527Z,8.20
2023-04-20T12:57:27.606Z,8.20
2023-04-20T12:59:56.494Z,8.00
2023-04-20T13:02:24.712Z,8.00
2023-04-20T13:04:53.924Z,8.10
2023-04-20T13:07:21.851Z,8.20
2023-04-20T13:09:50.781Z,8.30
2023-04-20T13:12:20.257Z,8.30
2023-04-20T13:14:48.303Z,8.30
2023-04-20T13:17:16.412Z,8.30
2023-04-20T13:19:44.416Z,8.20
2023-04-20T13:22:16.744Z,8.40
2023-04-20T13:24:46.249Z,8.50
2023-04-20T13:27:14.187Z,8.60
2023-04-20T13:29:43.684Z,8.50
2023-04-20T13:32:12.128Z,8.60
2023-04-20T13:34:40.270Z,8.60
2023-04-20T13:37:08.224Z,8.60
2023-04-20T13:39:36.411Z,8.40
2023-04-20T13:42:04.377Z,8.60
2023-04-20T13:44:32.624Z,8.80
2023-04-20T13:47:01.919Z,8.90
2023-04-20T13:49:29.788Z,8.80
2023-04-20T13:51:58.055Z,8.80
2023-04-20T13:54:25.988Z,8.70
2023-04-20T13:56:54.196Z,8.70
2023-04-20T13:59:22.102Z,8.60
2023-04-20T14:01:50.293Z,8.60
2023-04-20T14:04:19.952Z,8.60
2023-04-20T14:06:48.149Z,8.50
2023-04-20T14:09:16.491Z,8.50
2023-04-20T14:11:44.535Z,8.40
2023-04-20T14:14:12.728Z,8.40
2023-04-20T14:16:44.767Z,8.40
2023-04-20T14:19:12.898Z,8.50
2023-04-20T14:21:44.501Z,8.50
2023-04-20T14:24:12.520Z,8.30
2023-04-20T14:26:41.170Z,8.20
2023-04-20T14:29:09.212Z,8.20
2023-04-20T14:31:37.235Z,8.40
2023-04-20T14:34:05.519Z,8.40
2023-04-20T14:36:34.501Z,8.50
2023-04-20T14:39:03.866Z,8.60
2023-04-20T14:41:33.469Z,8.60
2023-04-20T14:44:01.680Z,8.80
2023-04-20T14:46:29.719Z,8.60
2023-04-20T14:48:57.866Z,8.50
2023-04-20T14:51:27.857Z,8.60
2023-04-20T14:53:56.079Z,8.70
2023-04-20T14:56:25.474Z,8.70
2023-04-20T14:58:54.389Z,8.80
2023-04-20T15:01:22.403Z,8.90
2023-04-20T15:03:50.841Z,8.80
2023-04-20T15:06:19.269Z,9.10
2023-04-20T15:08:47.161Z,9.20
2023-04-20T15:11:15.170Z,9.10
2023-04-20T15:13:44.444Z,9.10
2023-04-20T15:16:12.571Z,9.20
2023-04-20T15:18:40.646Z,9.40
2023-04-20T15:21:08.873Z,9.50
2023-04-20T15:23:36.785Z,9.80
2023-04-20T15:26:04.987Z,9.90
2023-04-20T15:28:33.056Z,10.00
2023-04-20T15:31:02.357Z,10.00
2023-04-20T15:33:31.220Z,10.00
2023-04-20T15:35:59.101Z,10.00
2023-04-20T15:38:27.327Z,10.10
2023-04-20T15:40:55.406Z,10.20
2023-04-20T15:43:23.791Z,10.30
2023-04-20T15:45:52.275Z,10.30
2023-04-20T15:48:21.536Z,10.40
2023-04-20T15:50:52.509Z,10.40
2023-04-20T15:53:21.559Z,10.50
2023-04-20T15:55:49.488Z,10.60
2023-04-20T15:58:17.728Z,10.70
2023-04-20T16:00:46.176Z,10.80
2023-04-20T16:03:14.415Z,10.80
2023-04-20T16:05:43.997Z,11.00
2023-04-20T16:08:13.068Z,11.10
2023-04-20T16:10:41.213Z,11.20
2023-04-20T16:13:09.914Z,11.20
2023-04-20T16:15:41.628Z,11.20
2023-04-20T16:18:09.647Z,11.20
2023-04-20T16:20:39.376Z,11.10
2023-04-20T16:23:10.346Z,11.20
2023-04-20T16:25:38.507Z,10.90
2023-04-20T16:28:06.751Z,11.00
2023-04-20T16:30:37.363Z,11.10
2023-04-20T16:33:05.674Z,11.10
2023-04-20T16:35:33.848Z,10.90
2023-04-20T16:38:01.926Z,10.90
2023-04-20T16:40:31.601Z,10.80
2023-04-20T16:43:01.738Z,10.80
2023-04-20T16:45:33.207Z,10.70
2023-04-20T16:48:01.228Z,10.70
2023-04-20T16:50:29.502Z,10.70
2023-04-20T16:52:57.431Z,10.60
2023-04-20T16:55:26.228Z,10.70
2023-04-20T16:58:00.239Z,10.60
2023-04-20T17:00:33.021Z,10.60
2023-04-20T17:03:02.050Z,10.60
2023-04-20T17:05:30.487Z,10.70
2023-04-20T17:07:58.485Z,10.60
2023-04-20T17:10:26.576Z,10.60
2023-04-20T17:12:55.907Z,10.60
2023-04-20T17:15:24.103Z,10.50
2023-04-20T17:17:52.171Z,10.40
2023-04-20T17:20:20.237Z,10.30
2023-04-20T17:22:48.141Z,10.30
2023-04-20T17:25:16.520Z,10.30
2023-04-20T17:27:44.517Z,10.30
2023-04-20T17:30:15.077Z,10.30
2023-04-20T17:32:43.544Z,10.30
2023-04-20T17:35:11.777Z,10.30
2023-04-20T17:37:39.779Z,10.30
2023-04-20T17:40:09.125Z,10.30
2023-04-20T17:42:41.078Z,10.30
2023-04-20T17:45:09.751Z,10.30
2023-04-20T17:47:39.342Z,10.20
2023-04-20T17:50:08.851Z,10.30
2023-04-20T17:52:36.777Z,10.20
2023-04-20T17:55:05.189Z,10.20
2023-04-20T17:57:34.099Z,10.20
2023-04-20T18:00:02.246Z,10.10
2023-04-20T18:02:30.601Z,10.00
2023-04-20T18:05:00.902Z,10.00
2023-04-20T18:07:29.430Z,10.10
2023-04-20T18:09:57.645Z,10.00
2023-04-20T18:12:25.529Z,10.00
2023-04-20T18:14:53.408Z,10.00
2023-04-20T18:17:21.506Z,9.90
2023-04-20T18:19:49.426Z,9.90
2023-04-20T18:22:19.053Z,9.80
2023-04-20T18:24:46.918Z,9.80
2023-04-20T18:27:14.964Z,9.80
2023-04-20T18:29:42.915Z,9.80
2023-04-20T18:32:10.999Z,9.80
2023-04-20T18:34:38.921Z,9.70
2023-04-20T18:37:07.562Z,9.70
2023-04-20T18:39:37.380Z,9.70
2023-04-20T18:42:05.582Z,9.70
2023-04-20T18:44:34.265Z,9.70
2023-04-20T18:47:02.396Z,9.80
2023-04-20T18:49:31.944Z,9.80
2023-04-20T18:52:00.803Z,9.70
2023-04-20T18:54:28.736Z,9.70
2023-04-20T18:56:58.409Z,9.70
2023-04-20T18:59:26.721Z,9.60
2023-04-20T19:01:54.743Z,9.60
2023-04-20T19:04:23.592Z,9.60
2023-04-20T19:06:51.775Z,9.60
2023-04-20T19:09:19.856Z,9.50
2023-04-20T19:11:47.783Z,9.50
2023-04-20T19:14:17.354Z,9.70
2023-04-20T19:16:45.725Z,9.60
2023-04-20T19:19:13.828Z,9.60
2023-04-20T19:21:41.811Z,9.60
2023-04-20T19:24:09.880Z,9.50
2023-04-20T19:26:37.986Z,9.60
2023-04-20T19:29:06.059Z,9.60
2023-04-20T19:31:39.924Z,9.70
2023-04-20T19:34:08.382Z,9.60
2023-04-20T19:36:36.372Z,9.50
2023-04-20T19:39:06.927Z,9.50
2023-04-20T19:41:35.199Z,9.50
2023-04-20T19:44:05.049Z,9.40
2023-04-20T19:46:33.217Z,9.40
2023-04-20T19:49:02.920Z,9.40
2023-04-20T19:51:32.649Z,9.30
2023-04-20T19:54:01.729Z,9.30
2023-04-20T19:56:29.808Z,9.20
2023-04-20T19:58:57.801Z,9.30
2023-04-20T20:01:25.932Z,9.20
2023-04-20T20:03:54.186Z,9.20
2023-04-20T20:06:23.717Z,9.20
2023-04-20T20:08:51.688Z,9.20
2023-04-20T20:11:22.294Z,9.20
2023-04-20T20:13:50.261Z,9.20
2023-04-20T20:16:18.549Z,9.20
2023-04-20T20:18:48.467Z,9.40
2023-04-20T20:21:16.525Z,9.40
2023-04-20T20:23:46.087Z,9.30
2023-04-20T20:26:14.103Z,9.30
2023-04-20T20:28:42.853Z,9.20
2023-04-20T20:31:10.899Z,9.20
2023-04-20T20:33:39.387Z,9.00
2023-04-20T20:36:07.479Z,8.90
2023-04-20T20:38:35.407Z,9.00
2023-04-20T20:41:06.681Z,9.00
2023-04-20T20:43:34.898Z,9.10
2023-04-20T20:46:02.769Z,9.00
2023-04-20T20:48:30.680Z,9.10
2023-04-20T20:50:58.859Z,9.10
2023-04-20T20:53:26.728Z,9.20
2023-04-20T20:55:56.646Z,9.20
2023-04-20T20:58:26.170Z,9.10
2023-04-20T21:00:54.195Z,9.10
2023-04-20T21:03:22.433Z,9.20
2023-04-20T21:05:50.672Z,9.20
2023-04-20T21:08:18.795Z,9.20
2023-04-20T21:10:47.969Z,9.10
2023-04-20T21:13:15.905Z,9.20
2023-04-20T21:15:45.491Z,9.20
2023-04-20T21:18:13.598Z,9.20
2023-04-20T21:20:41.661Z,9.20
2023-04-20T21:23:09.548Z,9.20
2023-04-20T21:25:37.657Z,9.30
2023-04-20T21:28:05.865Z,9.30
2023-04-20T21:30:34.075Z,9.30
2023-04-20T21:33:03.351Z,9.40
2023-04-20T21:35:31.341Z,9.30
2023-04-20T21:37:59.885Z,9.30
2023-04-20T21:40:27.766Z,9.20
2023-04-20T21:42:55.827Z,9.30
2023-04-20T21:45:23.853Z,9.30
2023-04-20T21:47:52.118Z,9.30
2023-04-20T21:50:27.005Z,9.40
2023-04-20T21:52:55.137Z,9.40
2023-04-20T21:55:23.402Z,9.40
2023-04-20T21:57:52.616Z,9.30
2023-04-20T22:00:20.931Z,9.30
2023-04-20T22:02:50.314Z,9.20
2023-04-20T22:05:18.736Z,9.20
2023-04-20T22:07:47.993Z,9.20
2023-04-20T22:10:16.320Z,9.20
2023-04-20T22:12:44.277Z,9.20
2023-04-20T22:15:14.316Z,9.20
2023-04-20T22:17:45.173Z,9.20
2023-04-20T22:20:14.788Z,9.20
2023-04-20T22:22:43.088Z,9.20
2023-04-20T22:25:13.225Z,9.20
2023-04-20T22:27:41.327Z,9.10
2023-04-20T22:30:10.067Z,9.10
2023-04-20T22:32:38.545Z,9.10
2023-04-20T22:35:07.693Z,9.10
2023-04-20T22:37:35.949Z,9.00
2023-04-20T22:40:05.951Z,9.10
2023-04-20T22:42:35.974Z,9.10
2023-04-20T22:45:04.005Z,9.00
2023-04-20T22:47:32.308Z,8.90
2023-04-20T22:50:00.322Z,8.90
2023-04-20T22:52:28.247Z,8.90
2023-04-20T22:54:56.396Z,8.90
2023-04-20T22:57:24.364Z,9.00
2023-04-20T22:59:53.764Z,8.90
2023-04-20T23:02:21.989Z,9.00
2023-04-20T23:04:50.002Z,9.10
2023-04-20T23:07:19.505Z,9.00
2023-04-20T23:09:48.177Z,9.00
2023-04-20T23:12:16.698Z,8.90
2023-04-20T23:14:44.765Z,8.90
2023-04-20T23:17:14.035Z,8.80
2023-04-20T23:19:42.206Z,8.80
2023-04-20T23:22:10.406Z,8.80
2023-04-20T23:24:38.351Z,8.90
2023-04-20T23:27:06.493Z,8.90
2023-04-20T23:29:34.597Z,8.90
2023-04-20T23:32:02.699Z,9.00
2023-04-20T23:34:32.291Z,8.90
2023-04-20T23:37:00.377Z,8.90
2023-04-20T23:39:28.317Z,8.90
2023-04-20T23:41:56.484Z,8.90
2023-04-20T23:44:24.366Z,8.90
2023-04-20T23:46:52.242Z,8.80
2023-04-20T23:49:21.030Z,8.80
2023-04-20T23:51:50.514Z,8.80
2023-04-20T23:54:18.374Z,8.80
2023-04-20T23:56:46.446Z,8.80
2023-04-20T23:59:14.349Z,8.80
